Time;durP1;ratioP1;P1;durP2;ratioP2;P2;SDS_P1;SDS_P2;PMS_P1;PMS_P2;Temp;Humidity;BMP_temperature;BMP_pressure;BME280_temperature;BME280_humidity;BME280_pressure;Samples;Min_cycle;Max_cycle;Signal;HPM_P1;HPM_P2
2023/05/06 00:01:45;;;;;;;4.60;2.00;;;;;;;8.11;71.31;100379.14;105819;1254;75680;-74
2023/05/06 00:04:12;;;;;;;2.20;1.80;;;;;;;8.14;71.24;100387.34;105751;1254;71138;-74
2023/05/06 00:06:40;;;;;;;8.40;1.70;;;;;;;8.14;71.11;100395.59;105695;1259;73356;-72
2023/05/06 00:09:07;;;;;;;3.60;1.90;;;;;;;8.08;71.08;100405.83;105852;1253;62218;-71
2023/05/06 00:11:34;;;;;;;4.00;1.90;;;;;;;8.07;71.14;100403.11;107060;1253;61551;-74
2023/05/06 00:14:01;;;;;;;1.70;1.60;;;;;;;8.05;71.34;100407.32;106831;1253;73172;-75
2023/05/06 00:16:27;;;;;;;4.40;1.80;;;;;;;8.02;71.26;100403.35;105834;1257;71033;-71
2023/05/06 00:18:54;;;;;;;4.00;2.10;;;;;;;7.98;71.21;100404.09;105896;1258;71068;-71
2023/05/06 00:21:21;;;;;;;2.80;2.30;;;;;;;7.91;71.38;100403.80;105733;1253;62414;-74
2023/05/06 00:23:48;;;;;;;2.90;1.80;;;;;;;7.84;71.57;100404.36;105819;1253;62406;-71
2023/05/06 00:26:15;;;;;;;2.70;1.90;;;;;;;7.88;71.68;100404.96;105702;1254;75027;-71
2023/05/06 00:28:41;;;;;;;4.40;2.00;;;;;;;7.87;71.96;100404.68;105817;1254;72626;-74
2023/05/06 00:31:08;;;;;;;3.90;2.10;;;;;;;7.80;72.12;100405.98;105507;1258;73305;-73
2023/05/06 00:33:35;;;;;;;3.40;1.50;;;;;;;7.75;72.33;100408.05;105757;1255;62210;-75
2023/05/06 00:36:02;;;;;;;2.50;1.80;;;;;;;7.72;72.38;100410.90;105872;1253;61693;-72
2023/05/06 00:38:29;;;;;;;2.20;1.70;;;;;;;7.72;72.37;100414.67;106031;1258;75305;-72
2023/05/06 00:40:56;;;;;;;3.30;2.10;;;;;;;7.69;72.50;100422.63;105979;1258;71325;-73
2023/05/06 00:43:24;;;;;;;2.70;1.70;;;;;;;7.67;72.58;100421.41;106047;1256;72301;-74
2023/05/06 00:45:50;;;;;;;3.60;1.90;;;;;;;7.76;72.53;100426.41;105969;1257;62697;-74
2023/05/06 00:48:17;;;;;;;2.30;1.80;;;;;;;7.87;72.38;100424.79;105888;1259;60653;-70
2023/05/06 00:50:44;;;;;;;3.90;2.20;;;;;;;7.90;72.24;100422.77;106497;1253;74561;-71
2023/05/06 00:53:11;;;;;;;1.80;1.70;;;;;;;7.89;72.15;100427.94;106578;1253;72063;-72
2023/05/06 00:55:38;;;;;;;2.40;1.60;;;;;;;7.90;72.07;100428.91;106655;1258;73483;-73
2023/05/06 00:58:05;;;;;;;2.30;1.90;;;;;;;7.88;71.86;100432.27;107922;1253;60912;-73
2023/05/06 01:00:32;;;;;;;2.00;1.70;;;;;;;7.84;71.90;100434.36;108495;1253;61103;-72
2023/05/06 01:02:59;;;;;;;1.50;1.30;;;;;;;7.82;71.86;100432.30;108069;1253;74853;-75
2023/05/06 01:05:33;;;;;;;2.50;1.90;;;;;;;7.89;71.79;100423.37;108333;1253;70915;-74
2023/05/06 01:08:25;;;;;;;3.20;1.40;;;;;;;7.96;71.70;100425.38;108583;1254;70982;-73
2023/05/06 01:11:23;;;;;;;2.30;1.90;;;;;;;7.95;71.69;100424.05;108577;1253;61477;-73
2023/05/06 01:13:58;;;;;;;2.20;1.70;;;;;;;7.97;71.73;100422.52;108566;1254;59719;-73
2023/05/06 01:16:29;;;;;;;2.10;1.60;;;;;;;7.97;71.78;100422.70;108587;1253;72981;-75
2023/05/06 01:18:58;;;;;;;3.10;1.80;;;;;;;7.94;71.81;100421.48;108753;1253;71551;-75
2023/05/06 01:21:25;;;;;;;2.10;1.60;;;;;;;7.94;71.80;100424.35;107249;1257;73448;-73
2023/05/06 01:23:56;;;;;;;3.70;1.60;;;;;;;7.94;71.67;100434.39;106530;1253;63729;-73
2023/05/06 01:26:25;;;;;;;2.70;2.00;;;;;;;8.00;71.61;100439.00;106231;1253;61185;-73
2023/05/06 01:28:52;;;;;;;1.90;1.50;;;;;;;8.00;71.69;100437.90;106050;1258;75084;-72
2023/05/06 01:31:29;;;;;;;1.80;1.40;;;;;;;7.91;71.82;100440.47;106734;1258;70805;-74
2023/05/06 01:34:20;;;;;;;2.40;1.60;;;;;;;7.81;72.06;100453.30;107396;1258;71717;-73
2023/05/06 01:37:05;;;;;;;4.30;1.70;;;;;;;7.78;72.27;100463.28;107280;1256;60668;-72
2023/05/06 01:39:32;;;;;;;2.40;1.60;;;;;;;7.77;72.35;100465.84;107184;1257;59233;-73
2023/05/06 01:41:59;;;;;;;2.70;1.70;;;;;;;7.75;72.31;100466.61;106374;1253;74168;-74
2023/05/06 01:44:28;;;;;;;1.90;1.70;;;;;;;7.73;72.26;100467.66;106315;1253;70002;-72
2023/05/06 01:46:55;;;;;;;3.20;1.40;;;;;;;7.71;72.25;100464.64;106547;1254;73694;-73
2023/05/06 01:49:22;;;;;;;5.20;2.30;;;;;;;7.76;72.03;100465.08;105864;1257;62387;-69
2023/05/06 01:51:50;;;;;;;5.50;1.80;;;;;;;7.79;71.74;100471.34;105958;1258;62353;-71
2023/05/06 01:54:17;;;;;;;2.00;1.50;;;;;;;7.70;71.72;100463.97;105845;1253;73926;-68
2023/05/06 01:56:45;;;;;;;2.00;1.40;;;;;;;7.60;71.81;100465.49;105858;1253;72407;-71
2023/05/06 01:59:13;;;;;;;2.60;1.80;;;;;;;7.50;71.95;100464.52;106058;1253;73432;-70
2023/05/06 02:01:40;;;;;;;2.00;1.60;;;;;;;7.39;72.13;100464.70;106464;1253;60585;-72
2023/05/06 02:04:07;;;;;;;2.30;1.60;;;;;;;7.23;72.36;100459.33;105937;1253;61283;-70
2023/05/06 02:06:34;;;;;;;2.50;1.40;;;;;;;7.11;72.70;100462.80;105934;1253;74750;-71
2023/05/06 02:09:03;;;;;;;1.60;1.40;;;;;;;7.13;72.62;100467.94;106130;1257;69253;-70
2023/05/06 02:11:32;;;;;;;5.60;1.80;;;;;;;7.16;72.59;100478.36;105955;1260;73429;-72
2023/05/06 02:14:05;;;;;;;3.50;1.70;;;;;;;7.13;72.90;100480.42;106197;1256;61175;-70
2023/05/06 02:16:32;;;;;;;4.30;1.50;;;;;;;7.08;73.10;100478.92;107363;1253;61232;-75
2023/05/06 02:19:00;;;;;;;5.30;1.70;;;;;;;7.04;73.16;100480.66;108130;1258;75494;-73
2023/05/06 02:21:26;;;;;;;1.90;1.50;;;;;;;6.99;73.10;100478.73;107535;1253;71540;-73
2023/05/06 02:23:53;;;;;;;1.70;1.50;;;;;;;6.95;73.22;100482.63;107659;1255;73610;-75
2023/05/06 02:26:21;;;;;;;3.30;1.40;;;;;;;6.92;73.39;100485.52;107759;1254;62201;-72
2023/05/06 02:28:48;;;;;;;2.50;1.30;;;;;;;7.01;73.26;100490.09;107846;1251;60362;-75
2023/05/06 02:31:15;;;;;;;2.20;1.30;;;;;;;7.13;73.10;100485.71;107475;1253;74080;-73
2023/05/06 02:33:43;;;;;;;1.50;1.30;;;;;;;7.16;72.77;100483.15;107738;1253;71902;-72
2023/05/06 02:36:10;;;;;;;2.90;1.30;;;;;;;7.16;72.33;100483.73;107366;1253;73678;-75
2023/05/06 02:38:37;;;;;;;2.70;1.60;;;;;;;7.15;72.22;100485.02;106589;1258;61477;-76
2023/05/06 02:41:04;;;;;;;2.20;1.70;;;;;;;7.15;72.10;100487.49;106312;1253;61290;-71
2023/05/06 02:43:31;;;;;;;2.30;1.50;;;;;;;7.16;72.04;100493.60;107144;1253;74903;-75
2023/05/06 02:45:58;;;;;;;2.10;1.50;;;;;;;7.16;71.81;100493.08;106220;1253;71559;-74
2023/05/06 02:48:25;;;;;;;1.70;1.40;;;;;;;7.16;71.81;100489.01;105925;1256;74947;-73
2023/05/06 02:50:52;;;;;;;1.50;1.30;;;;;;;7.16;71.50;100500.79;105754;1253;63185;-73
2023/05/06 02:53:19;;;;;;;3.10;1.20;;;;;;;7.24;70.90;100508.36;105809;1253;62632;-74
2023/05/06 02:55:46;;;;;;;1.90;1.50;;;;;;;7.28;70.51;100507.30;105785;1257;76206;-73
2023/05/06 02:58:13;;;;;;;2.50;1.30;;;;;;;7.26;70.39;100508.92;105867;1253;72060;-77
2023/05/06 03:00:40;;;;;;;3.70;1.10;;;;;;;7.19;70.07;100511.08;105868;1253;74653;-74
2023/05/06 03:03:08;;;;;;;3.00;1.70;;;;;;;7.15;70.01;100519.58;105845;1255;60560;-74
2023/05/06 03:05:35;;;;;;;3.60;1.90;;;;;;;7.11;69.89;100516.18;105995;1257;60441;-76
2023/05/06 03:08:04;;;;;;;2.30;1.40;;;;;;;7.03;69.67;100515.06;105684;1258;76164;-75
2023/05/06 03:10:31;;;;;;;2.60;1.40;;;;;;;6.96;69.81;100517.61;105742;1258;71625;-77
2023/05/06 03:12:59;;;;;;;3.00;1.60;;;;;;;6.91;69.77;100522.95;105702;1254;73827;-75
2023/05/06 03:15:27;;;;;;;5.80;1.90;;;;;;;6.87;69.71;100522.31;105687;1256;60519;-74
2023/05/06 03:17:54;;;;;;;3.70;1.50;;;;;;;6.84;69.64;100525.60;105962;1253;60353;-75
2023/05/06 03:20:22;;;;;;;1.60;1.30;;;;;;;6.89;69.76;100528.67;106337;1253;73019;-73
2023/05/06 03:22:51;;;;;;;3.00;1.50;;;;;;;6.97;69.62;100526.88;106313;1258;73045;-74
2023/05/06 03:25:18;;;;;;;3.20;1.40;;;;;;;6.94;69.15;100528.34;106284;1253;72453;-73
2023/05/06 03:27:46;;;;;;;3.10;1.70;;;;;;;6.87;69.02;100529.92;106394;1258;60660;-75
2023/05/06 03:30:17;;;;;;;4.60;2.30;;;;;;;6.84;69.10;100544.48;105720;1259;62339;-74
2023/05/06 03:32:44;;;;;;;3.20;1.60;;;;;;;6.84;69.27;100552.38;105919;1253;76104;-74
2023/05/06 03:35:13;;;;;;;3.10;1.80;;;;;;;6.84;69.35;100557.64;105941;1254;72430;-75
2023/05/06 03:37:42;;;;;;;3.30;1.80;;;;;;;6.84;69.28;100556.19;105744;1256;75076;-77
2023/05/06 03:40:09;;;;;;;2.00;1.70;;;;;;;6.89;69.45;100564.31;105809;1256;61556;-76
2023/05/06 03:42:36;;;;;;;2.20;1.50;;;;;;;6.94;69.65;100568.14;105822;1258;62453;-75
2023/05/06 03:45:05;;;;;;;1.70;1.20;;;;;;;6.97;70.00;100568.75;105636;1253;74392;-75
2023/05/06 03:47:32;;;;;;;2.90;1.30;;;;;;;7.10;70.04;100567.34;105804;1253;71160;-76
2023/05/06 03:50:00;;;;;;;1.90;1.40;;;;;;;7.18;69.75;100564.39;105728;1253;73237;-73
2023/05/06 03:52:28;;;;;;;3.30;1.60;;;;;;;7.14;69.89;100546.22;105874;1259;61200;-74
2023/05/06 03:54:57;;;;;;;2.30;1.50;;;;;;;7.16;69.75;100550.60;105753;1259;62064;-75
2023/05/06 03:57:25;;;;;;;3.60;1.70;;;;;;;7.16;69.75;100551.14;105905;1257;75723;-73
2023/05/06 03:59:54;;;;;;;2.50;1.70;;;;;;;7.17;69.52;100548.30;105674;1259;71148;-73
2023/05/06 04:02:22;;;;;;;2.70;1.50;;;;;;;7.17;69.40;100550.79;106001;1258;74060;-71
2023/05/06 04:04:50;;;;;;;3.70;1.50;;;;;;;7.19;69.33;100556.59;105654;1261;61224;-72
2023/05/06 04:07:17;;;;;;;5.70;1.60;;;;;;;7.26;69.28;100557.02;105816;1253;62288;-73
2023/05/06 04:09:44;;;;;;;3.60;1.60;;;;;;;7.38;68.71;100559.21;105648;1260;75845;-71
2023/05/06 04:12:10;;;;;;;3.10;1.60;;;;;;;7.46;68.36;100564.23;105951;1253;72159;-72
2023/05/06 04:14:38;;;;;;;3.00;1.60;;;;;;;7.61;68.13;100566.67;105885;1253;75056;-73
2023/05/06 04:17:06;;;;;;;2.10;1.60;;;;;;;7.81;67.72;100570.13;105886;1259;60520;-71
2023/05/06 04:19:33;;;;;;;6.30;1.80;;;;;;;7.97;66.48;100568.76;105557;1255;60460;-72
2023/05/06 04:22:01;;;;;;;3.80;2.00;;;;;;;8.02;66.01;100569.92;105714;1253;75995;-75
2023/05/06 04:24:30;;;;;;;3.80;1.70;;;;;;;8.02;65.74;100567.02;105691;1253;70596;-74
2023/05/06 04:26:58;;;;;;;2.80;1.80;;;;;;;8.02;65.65;100567.80;105835;1258;72878;-73
2023/05/06 04:29:25;;;;;;;1.80;1.50;;;;;;;8.00;65.68;100565.78;105768;1256;61879;-74
2023/05/06 04:31:56;;;;;;;5.60;2.10;;;;;;;7.98;65.53;100571.65;105699;1253;61380;-73
2023/05/06 04:34:26;;;;;;;3.40;1.80;;;;;;;7.95;65.47;100582.14;105813;1253;72862;-74
2023/05/06 04:36:57;;;;;;;4.00;1.50;;;;;;;7.93;65.49;100584.23;105857;1258;70539;-73
2023/05/06 04:39:47;;;;;;;3.20;1.90;;;;;;;7.95;65.64;100581.40;105458;1253;72235;-72
2023/05/06 04:42:15;;;;;;;4.00;1.90;;;;;;;7.99;65.76;100586.05;105910;1255;61380;-72
2023/05/06 04:44:50;;;;;;;4.10;2.60;;;;;;;8.03;65.60;100594.02;105551;1253;61085;-72
2023/05/06 04:47:20;;;;;;;2.30;1.80;;;;;;;8.06;65.29;100591.95;105708;1259;74647;-74
2023/05/06 04:49:48;;;;;;;4.30;1.70;;;;;;;8.11;65.15;100594.54;105869;1253;72392;-74
2023/05/06 04:52:15;;;;;;;3.80;2.10;;;;;;;8.28;64.85;100599.75;105866;1253;74706;-70
2023/05/06 04:54:43;;;;;;;3.20;1.70;;;;;;;8.47;64.04;100596.23;105689;1256;60538;-72
2023/05/06 04:57:11;;;;;;;1.70;1.50;;;;;;;8.58;63.25;100593.55;105647;1253;61448;-74
2023/05/06 04:59:40;;;;;;;2.60;1.80;;;;;;;8.63;62.99;100590.11;105793;1258;73522;-74
2023/05/06 05:02:07;;;;;;;2.50;1.60;;;;;;;8.65;62.60;100590.42;105671;1258;68692;-73
2023/05/06 05:04:35;;;;;;;3.30;2.20;;;;;;;8.67;62.23;100589.39;105536;1256;74443;-72
2023/05/06 05:07:02;;;;;;;3.40;2.00;;;;;;;8.70;61.70;100585.08;105550;1253;61559;-73
2023/05/06 05:09:30;;;;;;;3.00;1.80;;;;;;;8.72;61.36;100588.92;105650;1257;61511;-73
2023/05/06 05:11:57;;;;;;;4.00;1.90;;;;;;;8.77;61.61;100585.85;105627;1253;73254;-72
2023/05/06 05:14:25;;;;;;;3.20;2.10;;;;;;;8.81;61.36;100585.50;105823;1258;72513;-72
2023/05/06 05:16:52;;;;;;;3.10;1.70;;;;;;;8.82;60.62;100583.11;105626;1253;74781;-73
2023/05/06 05:19:20;;;;;;;2.80;1.60;;;;;;;8.85;60.09;100586.70;105775;1253;61473;-74
2023/05/06 05:21:48;;;;;;;3.60;2.10;;;;;;;8.85;59.58;100584.03;105931;1253;60462;-72
2023/05/06 05:24:15;;;;;;;4.70;2.00;;;;;;;8.87;59.00;100587.77;105842;1253;74800;-71
2023/05/06 05:26:42;;;;;;;3.80;1.70;;;;;;;8.91;58.77;100589.22;105805;1259;70508;-74
2023/05/06 05:29:10;;;;;;;2.80;1.60;;;;;;;8.95;58.49;100592.20;105635;1256;74875;-74
2023/05/06 05:31:37;;;;;;;3.30;1.90;;;;;;;8.99;58.39;100590.41;105807;1254;61259;-74
2023/05/06 05:34:05;;;;;;;3.30;2.10;;;;;;;9.01;58.33;100589.67;105736;1258;61610;-73
2023/05/06 05:36:32;;;;;;;4.60;1.50;;;;;;;9.04;57.22;100590.30;105723;1258;74443;-71
2023/05/06 05:39:01;;;;;;;2.40;1.40;;;;;;;9.07;56.45;100587.58;105315;1258;72235;-71
2023/05/06 05:41:28;;;;;;;3.00;1.80;;;;;;;9.12;55.96;100586.61;105437;1253;71742;-75
2023/05/06 05:43:55;;;;;;;3.00;2.00;;;;;;;9.17;55.71;100585.61;105486;1256;62692;-74
2023/05/06 05:46:22;;;;;;;2.30;1.60;;;;;;;9.23;55.47;100588.29;105304;1253;61201;-72
2023/05/06 05:48:50;;;;;;;3.20;1.60;;;;;;;9.28;55.65;100592.26;105522;1253;76055;-74
2023/05/06 05:51:17;;;;;;;3.10;2.60;;;;;;;9.33;55.22;100593.07;106046;1257;73588;-72
2023/05/06 05:53:44;;;;;;;3.70;1.70;;;;;;;9.40;54.83;100593.86;105842;1253;73072;-70
2023/05/06 05:56:12;;;;;;;2.30;1.70;;;;;;;9.47;53.39;100587.00;105995;1253;62372;-72
2023/05/06 05:58:39;;;;;;;2.80;1.90;;;;;;;9.51;52.07;100594.42;105295;1258;60493;-70
2023/05/06 06:01:07;;;;;;;4.40;1.90;;;;;;;9.52;50.83;100592.77;105711;1253;74472;-72
2023/05/06 06:03:34;;;;;;;3.60;1.80;;;;;;;9.50;50.71;100590.42;105433;1258;72200;-73
2023/05/06 06:06:01;;;;;;;3.70;1.50;;;;;;;9.56;50.64;100596.11;105765;1258;71217;-72
2023/05/06 06:08:30;;;;;;;3.80;1.80;;;;;;;9.63;49.26;100595.08;105862;1258;62497;-71
2023/05/06 06:10:57;;;;;;;2.50;1.80;;;;;;;9.67;48.25;100601.30;105342;1256;60458;-72
2023/05/06 06:13:29;;;;;;;6.90;2.00;;;;;;;9.71;47.30;100601.04;105833;1258;73906;-72
2023/05/06 06:15:57;;;;;;;3.10;1.50;;;;;;;9.75;46.43;100603.04;105935;1253;72402;-73
2023/05/06 06:18:24;;;;;;;5.70;2.00;;;;;;;9.77;45.81;100608.66;105726;1256;74042;-72
2023/05/06 06:20:51;;;;;;;2.40;1.40;;;;;;;9.81;44.95;100605.50;105790;1258;60578;-76
2023/05/06 06:23:19;;;;;;;3.80;1.50;;;;;;;9.83;44.31;100603.53;105985;1253;62055;-71
2023/05/06 06:25:46;;;;;;;2.90;1.40;;;;;;;9.85;43.85;100605.98;105711;1254;76118;-73
2023/05/06 06:28:14;;;;;;;2.20;1.80;;;;;;;9.90;43.48;100603.92;105735;1254;72494;-73
2023/05/06 06:30:42;;;;;;;4.90;1.80;;;;;;;9.94;42.95;100609.44;105803;1256;72995;-74
2023/05/06 06:33:09;;;;;;;2.20;1.60;;;;;;;9.96;42.98;100604.27;105848;1256;62370;-74
2023/05/06 06:35:36;;;;;;;2.10;1.40;;;;;;;9.98;42.42;100606.38;105785;1253;61175;-74
2023/05/06 06:38:02;;;;;;;1.60;1.30;;;;;;;10.00;42.48;100609.02;105550;1260;74644;-73
2023/05/06 06:40:29;;;;;;;2.70;1.60;;;;;;;10.04;42.60;100608.78;105763;1253;72412;-73
2023/05/06 06:42:56;;;;;;;5.00;1.90;;;;;;;10.11;42.44;100613.68;105685;1256;72731;-74
2023/05/06 06:45:49;;;;;;;2.80;1.40;;;;;;;10.16;42.48;100611.75;105620;1253;61268;-74
2023/05/06 06:48:16;;;;;;;2.10;1.60;;;;;;;10.22;42.17;100614.34;105651;1258;62655;-73
2023/05/06 06:50:44;;;;;;;2.30;1.60;;;;;;;10.31;42.01;100620.67;105647;1254;75893;-73
2023/05/06 06:53:10;;;;;;;4.20;1.80;;;;;;;10.39;41.44;100625.23;105660;1253;69921;-73
2023/05/06 06:55:37;;;;;;;2.90;1.80;;;;;;;10.42;40.90;100621.16;105743;1253;71207;-74
2023/05/06 06:58:04;;;;;;;3.10;1.70;;;;;;;10.43;41.15;100617.73;105840;1257;62818;-73
2023/05/06 07:00:31;;;;;;;2.20;1.90;;;;;;;10.49;41.25;100620.93;105843;1258;62826;-76
2023/05/06 07:02:58;;;;;;;2.90;1.50;;;;;;;10.56;40.91;100617.92;105933;1254;73270;-74
2023/05/06 07:05:26;;;;;;;3.60;1.70;;;;;;;10.66;40.64;100616.98;105383;1259;71411;-73
2023/05/06 07:07:53;;;;;;;3.20;1.60;;;;;;;10.74;40.46;100620.66;105935;1256;74744;-71
2023/05/06 07:10:21;;;;;;;3.20;1.40;;;;;;;10.80;39.67;100620.83;105755;1254;60473;-73
2023/05/06 07:12:47;;;;;;;5.90;2.10;;;;;;;10.83;38.98;100619.08;105793;1254;61159;-73
2023/05/06 07:15:14;;;;;;;3.40;1.50;;;;;;;10.86;38.40;100617.77;105823;1258;73964;-74
2023/05/06 07:17:41;;;;;;;2.20;1.60;;;;;;;10.84;38.47;100617.23;105794;1253;71728;-72
2023/05/06 07:20:09;;;;;;;9.60;1.90;;;;;;;10.87;38.32;100614.80;105914;1259;73482;-73
2023/05/06 07:22:36;;;;;;;4.90;1.80;;;;;;;10.90;37.86;100618.06;105698;1256;60410;-73
2023/05/06 07:25:03;;;;;;;3.30;1.30;;;;;;;10.92;37.32;100625.63;105880;1253;62504;-72
2023/05/06 07:27:30;;;;;;;2.90;1.80;;;;;;;10.97;37.60;100622.30;105342;1253;75675;-70
2023/05/06 07:29:57;;;;;;;2.80;1.50;;;;;;;11.03;37.45;100622.64;105512;1253;72607;-72
2023/05/06 07:32:24;;;;;;;3.30;1.30;;;;;;;11.07;37.16;100620.89;105828;1256;73654;-71
2023/05/06 07:34:50;;;;;;;2.20;1.50;;;;;;;11.09;37.09;100612.85;105896;1259;61277;-73
2023/05/06 07:37:17;;;;;;;3.30;2.20;;;;;;;11.12;36.35;100607.59;105817;1259;64272;-74
2023/05/06 07:39:44;;;;;;;3.50;1.30;;;;;;;11.10;36.42;100618.54;105812;1259;74670;-72
2023/05/06 07:42:11;;;;;;;4.00;1.80;;;;;;;11.11;36.37;100619.70;105809;1259;69290;-74
2023/05/06 07:44:38;;;;;;;1.70;1.30;;;;;;;11.14;36.57;100616.36;105589;1254;74735;-73
2023/05/06 07:47:06;;;;;;;1.90;1.30;;;;;;;11.18;35.83;100614.41;105774;1253;61258;-74
2023/05/06 07:49:33;;;;;;;3.30;1.50;;;;;;;11.19;35.55;100616.08;105590;1259;207762;-72
2023/05/06 07:54:07;;;;;;;2.80;1.50;;;;;;;11.27;35.52;100618.38;102373;1294;602635;-72
2023/05/06 07:56:35;;;;;;;4.10;1.90;;;;;;;11.32;35.05;100623.15;105402;1260;59238;-74
2023/05/06 07:59:01;;;;;;;2.90;1.70;;;;;;;11.40;35.19;100619.00;105354;1261;60120;-72
2023/05/06 08:01:28;;;;;;;3.60;1.60;;;;;;;11.47;35.37;100628.23;105402;1260;73200;-72
2023/05/06 08:03:55;;;;;;;5.60;1.90;;;;;;;11.55;35.07;100628.88;105430;1260;70332;-72
2023/05/06 08:06:22;;;;;;;2.90;1.50;;;;;;;11.60;34.61;100623.88;105339;1257;189535;-72
2023/05/06 08:08:49;;;;;;;4.30;1.60;;;;;;;11.63;34.52;100625.77;105546;1260;60383;-73
2023/05/06 08:11:15;;;;;;;4.50;1.60;;;;;;;11.68;34.46;100620.38;105468;1258;60692;-71
2023/05/06 08:13:45;;;;;;;5.10;1.80;;;;;;;11.75;34.30;100629.72;105328;1260;71111;-73
2023/05/06 08:16:12;;;;;;;3.30;1.40;;;;;;;11.83;34.12;100636.57;105842;1253;71235;-71
2023/05/06 08:18:39;;;;;;;2.80;1.70;;;;;;;11.94;33.75;100638.29;106008;1254;71724;-71
2023/05/06 08:21:06;;;;;;;2.10;1.50;;;;;;;12.04;33.44;100634.50;105988;1256;59708;-72
2023/05/06 08:23:34;;;;;;;3.40;1.70;;;;;;;12.17;33.65;100641.85;105868;1254;60964;-71
2023/05/06 08:26:00;;;;;;;3.60;2.30;;;;;;;12.30;33.44;100638.36;105893;1256;72019;-73
2023/05/06 08:28:28;;;;;;;4.60;2.10;;;;;;;12.39;33.24;100631.98;106087;1257;69472;-74
2023/05/06 08:30:54;;;;;;;7.80;2.30;;;;;;;12.48;32.98;100639.40;105974;1253;74052;-72
2023/05/06 08:33:21;;;;;;;3.00;2.10;;;;;;;12.58;32.93;100633.38;106165;1254;60426;-72
2023/05/06 08:35:49;;;;;;;6.60;2.60;;;;;;;12.68;33.13;100632.93;106165;1256;61715;-73
2023/05/06 08:38:17;;;;;;;5.90;2.20;;;;;;;12.83;33.15;100640.05;106031;1257;73985;-73
2023/05/06 08:40:44;;;;;;;2.40;1.80;;;;;;;12.95;32.84;100642.30;105991;1254;68647;-73
2023/05/06 08:43:14;;;;;;;4.60;2.00;;;;;;;13.07;32.67;100639.23;105845;1258;73625;-73
2023/05/06 08:45:41;;;;;;;4.10;2.10;;;;;;;13.21;32.52;100634.31;105861;1253;60279;-75
2023/05/06 08:48:08;;;;;;;3.40;2.10;;;;;;;13.34;32.27;100635.73;105753;1253;61232;-72
2023/05/06 08:50:41;;;;;;;6.20;2.90;;;;;;;13.47;32.10;100637.02;106017;1257;73345;-74
2023/05/06 08:53:12;;;;;;;5.10;2.00;;;;;;;13.64;32.00;100634.30;105898;1254;69956;-75
2023/05/06 08:55:42;;;;;;;3.00;1.70;;;;;;;13.87;31.47;100640.39;105930;1254;72058;-73
2023/05/06 08:58:10;;;;;;;2.50;1.90;;;;;;;14.08;31.30;100639.98;105966;1254;60408;-74
2023/05/06 09:00:37;;;;;;;2.00;1.70;;;;;;;14.27;30.41;100637.17;105854;1256;59599;-74
2023/05/06 09:03:04;;;;;;;3.90;2.00;;;;;;;14.48;30.58;100641.13;105885;1258;73888;-74
2023/05/06 09:05:31;;;;;;;9.80;3.20;;;;;;;14.69;30.42;100642.40;105787;1254;69513;-74
2023/05/06 09:07:58;;;;;;;2.50;1.80;;;;;;;14.96;30.22;100642.35;105878;1256;73868;-74
2023/05/06 09:10:30;;;;;;;6.70;2.70;;;;;;;15.29;29.88;100643.77;105812;1254;59669;-73
2023/05/06 09:12:57;;;;;;;3.20;2.10;;;;;;;15.58;29.26;100643.11;105920;1254;59713;-73
2023/05/06 09:15:25;;;;;;;9.90;3.00;;;;;;;15.90;28.97;100649.96;105959;1254;71124;-72
2023/05/06 09:17:52;;;;;;;3.60;2.20;;;;;;;16.34;28.73;100646.11;106052;1254;69523;-72
2023/05/06 09:20:19;;;;;;;4.40;2.60;;;;;;;16.89;28.65;100648.67;105772;1254;73563;-74
2023/05/06 09:22:46;;;;;;;5.30;2.60;;;;;;;17.55;28.45;100647.20;105846;1257;60351;-73
2023/05/06 09:25:13;;;;;;;4.70;2.30;;;;;;;18.31;27.71;100647.30;105998;1254;60532;-73
2023/05/06 09:27:40;;;;;;;3.20;1.90;;;;;;;18.99;27.25;100643.41;106050;1256;74185;-75
2023/05/06 09:30:08;;;;;;;1.90;1.60;;;;;;;19.59;26.56;100648.48;106152;1256;68449;-76
2023/05/06 09:32:35;;;;;;;3.60;2.10;;;;;;;20.15;26.04;100637.48;106737;1254;72962;-74
2023/05/06 09:35:07;;;;;;;4.30;2.20;;;;;;;20.59;25.56;100636.83;105881;1254;60669;-75
2023/05/06 09:37:35;;;;;;;3.20;2.10;;;;;;;21.02;25.28;100639.90;105917;1254;61087;-75
2023/05/06 09:40:02;;;;;;;3.10;2.10;;;;;;;21.41;24.85;100634.34;106038;1256;73106;-76
2023/05/06 09:42:29;;;;;;;5.60;3.40;;;;;;;21.83;24.65;100635.17;105893;1258;71558;-75
2023/05/06 09:44:58;;;;;;;3.90;3.50;;;;;;;22.18;24.33;100639.98;105790;1254;70969;-73
2023/05/06 09:47:32;;;;;;;3.00;2.70;;;;;;;22.42;24.05;100635.34;105933;1253;60530;-73
2023/05/06 09:50:02;;;;;;;2.70;2.00;;;;;;;22.79;23.69;100624.28;105927;1254;61484;-73
2023/05/06 09:52:29;;;;;;;2.30;2.00;;;;;;;23.10;23.80;100621.60;105977;1253;71023;-73
2023/05/06 09:54:56;;;;;;;2.40;2.20;;;;;;;23.49;23.71;100624.47;105888;1253;70530;-72
2023/05/06 09:57:23;;;;;;;3.00;2.20;;;;;;;23.84;23.27;100620.40;105814;1254;71648;-75
2023/05/06 09:59:51;;;;;;;2.40;2.00;;;;;;;24.15;23.10;100617.19;105898;1253;61619;-74
2023/05/06 10:02:18;;;;;;;3.00;2.00;;;;;;;24.39;22.79;100608.05;105767;1253;59740;-73
2023/05/06 10:04:45;;;;;;;3.70;2.40;;;;;;;24.53;22.74;100615.81;105798;1254;73246;-75
2023/05/06 10:07:12;;;;;;;4.30;2.10;;;;;;;24.72;22.79;100610.34;105821;1256;69826;-74
2023/05/06 10:09:40;;;;;;;3.10;2.70;;;;;;;24.99;22.79;100612.79;105774;1253;73854;-74
2023/05/06 10:12:07;;;;;;;3.50;2.30;;;;;;;25.37;22.50;100609.36;105585;1256;60222;-73
2023/05/06 10:14:36;;;;;;;3.00;2.00;;;;;;;25.75;22.26;100607.86;105764;1253;61841;-73
2023/05/06 10:17:06;;;;;;;2.80;2.40;;;;;;;26.06;21.76;100618.72;106092;1256;73438;-73
2023/05/06 10:19:33;;;;;;;2.10;2.00;;;;;;;26.32;21.46;100612.88;105893;1253;69529;-74
2023/05/06 10:22:07;;;;;;;3.90;2.20;;;;;;;26.45;21.36;100612.61;105844;1253;73705;-73
2023/05/06 10:24:39;;;;;;;3.30;2.60;;;;;;;26.64;21.45;100616.10;105983;1254;61080;-76
2023/05/06 10:27:06;;;;;;;2.70;1.90;;;;;;;26.92;21.14;100616.25;105858;1254;59841;-74
2023/05/06 10:29:34;;;;;;;4.60;2.30;;;;;;;27.11;20.62;100612.65;105813;1259;73767;-75
2023/05/06 10:32:02;;;;;;;3.50;1.90;;;;;;;27.00;21.06;100616.47;105980;1256;70279;-73
2023/05/06 10:34:31;;;;;;;2.30;2.10;;;;;;;27.04;20.51;100619.56;105912;1254;72435;-74
2023/05/06 10:36:57;;;;;;;2.40;2.20;;;;;;;26.90;20.72;100630.52;105902;1254;60076;-74
2023/05/06 10:39:25;;;;;;;3.80;2.20;;;;;;;26.95;20.82;100630.68;105798;1253;59641;-71
2023/05/06 10:41:51;;;;;;;4.80;2.40;;;;;;;27.08;20.73;100629.41;105823;1256;71873;-74
2023/05/06 10:44:46;;;;;;;3.10;1.90;;;;;;;27.23;20.85;100630.25;105911;1256;70213;-72
2023/05/06 10:47:12;;;;;;;5.00;2.30;;;;;;;27.35;20.61;100634.02;105793;1254;72690;-75
2023/05/06 10:49:39;;;;;;;2.00;1.90;;;;;;;27.48;20.52;100633.65;105838;1253;59619;-73
2023/05/06 10:52:12;;;;;;;2.80;2.10;;;;;;;27.62;19.88;100628.88;105842;1253;59614;-72
2023/05/06 10:54:49;;;;;;;2.60;2.20;;;;;;;27.31;20.12;100627.33;105927;1259;74693;-75
2023/05/06 10:57:16;;;;;;;2.90;2.60;;;;;;;27.20;20.59;100624.59;105938;1254;70138;-72
2023/05/06 10:59:45;;;;;;;3.70;2.40;;;;;;;27.43;20.67;100623.02;105822;1257;72258;-74
2023/05/06 11:02:12;;;;;;;2.60;2.40;;;;;;;27.77;20.36;100625.23;105770;1253;59902;-73
2023/05/06 11:04:39;;;;;;;2.10;2.00;;;;;;;27.97;20.27;100628.98;105991;1254;59613;-71
2023/05/06 11:07:13;;;;;;;4.70;2.50;;;;;;;28.25;19.94;100625.09;105917;1253;73308;-72
2023/05/06 11:10:12;;;;;;;2.50;2.00;;;;;;;28.50;19.92;100624.46;105823;1254;70959;-73
2023/05/06 11:12:45;;;;;;;4.00;2.30;;;;;;;28.90;19.84;100614.73;105547;1254;73643;-71
2023/05/06 11:15:42;;;;;;;3.00;2.20;;;;;;;29.22;19.71;100610.83;105942;1259;59482;-75
2023/05/06 11:18:25;;;;;;;3.30;2.10;;;;;;;29.48;19.53;100608.23;105882;1254;59634;-74
2023/05/06 11:20:59;;;;;;;3.90;2.20;;;;;;;29.52;19.59;100609.60;105912;1256;73003;-73
2023/05/06 11:23:41;;;;;;;2.30;2.00;;;;;;;29.50;19.36;100606.60;105957;1256;70865;-73
2023/05/06 11:26:08;;;;;;;2.30;2.10;;;;;;;29.44;19.47;100610.09;105947;1259;73663;-74
2023/05/06 11:28:35;;;;;;;3.30;2.30;;;;;;;29.51;19.73;100606.86;105819;1254;60032;-74
2023/05/06 11:31:02;;;;;;;2.40;2.20;;;;;;;29.77;19.48;100599.27;105994;1254;59625;-74